Time,TemperatureF,DewpointF,PressureIn,WindDirection,WindDirectionDegrees,WindSpeedMPH,WindSpeedGustMPH,Humidity,HourlyPrecipIn,Conditions,Clouds,dailyrainin,SoftwareType,DateUTC
2013-02-09 00:00:00,17.6,10.1,30.21,SW,225,3.4,3.4,72,0.00,,---,0.00,VWS V14.01,2013-02-09 05:00:00,
2013-02-09 00:05:00,17.4,9.9,30.21,SW,225,3.4,3.4,72,0.00,,---,0.00,VWS V14.01,2013-02-09 05:05:00,
2013-02-09 00:10:00,17.4,9.9,30.21,SW,225,3.4,3.4,72,0.00,,---,0.00,VWS V14.01,2013-02-09 05:10:00,
2013-02-09 00:15:00,17.1,9.6,30.21,SW,225,3.4,3.4,72,0.00,,---,0.00,VWS V14.01,2013-02-09 05:15:00,
2013-02-09 00:20:00,17.1,9.6,30.21,SW,225,3.4,3.4,72,0.00,,---,0.00,VWS V14.01,2013-02-09 05:20:00,
2013-02-09 00:25:00,16.9,9.4,30.21,SW,225,3.4,3.4,72,0.00,,---,0.00,VWS V14.01,2013-02-09 05:25:00,
2013-02-09 00:30:00,16.5,8.8,30.21,SW,225,3.4,3.4,71,0.00,,---,0.00,VWS V14.01,2013-02-09 05:30:00,
2013-02-09 00:35:00,16.3,8.6,30.21,SW,225,3.4,3.4,71,0.00,,---,0.00,VWS V14.01,2013-02-09 05:35:00,
2013-02-09 00:40:00,16.2,8.4,30.21,SW,225,3.4,3.4,71,0.00,,---,0.00,VWS V14.01,2013-02-09 05:40:00,
2013-02-09 00:45:00,16.2,8.7,30.21,SW,225,3.4,3.4,72,0.00,,---,0.00,VWS V14.01,2013-02-09 05:45:00,
2013-02-09 00:50:00,16.2,8.7,30.21,SW,225,3.4,3.4,72,0.00,,---,0.00,VWS V14.01,2013-02-09 05:50:00,
2013-02-09 00:55:00,16.0,8.6,30.21,SW,225,3.4,3.4,72,0.00,,---,0.00,VWS V14.01,2013-02-09 05:55:00,
2013-02-09 01:00:00,15.8,8.4,30.21,SW,225,3.4,3.4,72,0.00,,---,0.00,VWS V14.01,2013-02-09 06:00:00,
2013-02-09 01:05:00,15.6,8.2,30.21,SW,225,3.4,3.4,72,0.00,,---,0.00,VWS V14.01,2013-02-09 06:05:00,
2013-02-09 01:10:00,15.4,8.0,30.21,SW,225,3.4,3.4,72,0.00,,---,0.00,VWS V14.01,2013-02-09 06:10:00,
2013-02-09 01:15:00,15.1,7.7,30.21,SW,225,3.4,3.4,72,0.00,,---,0.00,VWS V14.01,2013-02-09 06:15:00,
2013-02-09 01:20:00,15.1,7.7,30.21,SW,225,3.4,3.4,72,0.00,,---,0.00,VWS V14.01,2013-02-09 06:20:00,
2013-02-09 01:25:00,14.9,7.5,30.21,SW,225,3.4,3.4,72,0.00,,---,0.00,VWS V14.01,2013-02-09 06:25:00,
2013-02-09 01:30:00,14.7,7.3,30.21,SW,225,3.4,3.4,72,0.00,,---,0.00,VWS V14.01,2013-02-09 06:30:00,
2013-02-09 01:35:00,14.5,7.5,30.24,SW,225,3.4,3.4,73,0.00,,---,0.00,VWS V14.01,2013-02-09 06:35:00,
2013-02-09 01:40:00,14.4,7.3,30.24,SW,225,3.4,3.4,73,0.00,,---,0.00,VWS V14.01,2013-02-09 06:40:00,
2013-02-09 01:45:00,14.2,7.1,30.24,SW,225,3.4,3.4,73,0.00,,---,0.00,VWS V14.01,2013-02-09 06:45:00,
2013-02-09 01:49:00,14.2,7.1,30.24,SW,225,3.4,3.4,73,0.00,,---,0.00,VWS V14.01,2013-02-09 06:49:00,
2013-02-09 01:54:00,14.0,7.0,30.24,SW,225,3.4,3.4,73,0.00,,---,0.00,VWS V14.01,2013-02-09 06:54:00,
2013-02-09 01:59:00,14.2,7.1,30.24,SW,225,3.4,3.4,73,0.00,,---,0.00,VWS V14.01,2013-02-09 06:59:00,
2013-02-09 02:04:00,14.0,7.2,30.24,SW,225,3.4,3.4,74,0.00,,---,0.00,VWS V14.01,2013-02-09 07:04:00,
2013-02-09 02:09:00,13.8,7.1,30.24,SW,225,3.4,3.4,74,0.00,,---,0.00,VWS V14.01,2013-02-09 07:09:00,
2013-02-09 02:14:00,13.6,6.9,30.24,SW,225,3.4,3.4,74,0.00,,---,0.00,VWS V14.01,2013-02-09 07:14:00,
2013-02-09 02:19:00,13.6,6.9,30.24,SW,225,3.4,3.4,74,0.00,,---,0.00,VWS V14.01,2013-02-09 07:19:00,
2013-02-09 02:24:00,13.5,6.7,30.24,SW,225,3.4,3.4,74,0.00,,---,0.00,VWS V14.01,2013-02-09 07:24:00,
2013-02-09 02:29:00,13.3,6.6,30.24,SW,225,3.4,3.4,74,0.00,,---,0.00,VWS V14.01,2013-02-09 07:29:00,
2013-02-09 02:34:00,13.1,6.4,30.21,SW,225,3.4,3.4,74,0.00,,---,0.00,VWS V14.01,2013-02-09 07:34:00,
2013-02-09 02:39:00,12.7,6.0,30.21,SW,225,3.4,3.4,74,0.00,,---,0.00,VWS V14.01,2013-02-09 07:39:00,
2013-02-09 02:44:00,12.7,6.0,30.21,SW,225,3.4,3.4,74,0.00,,---,0.00,VWS V14.01,2013-02-09 07:44:00,
2013-02-09 02:49:00,12.6,5.9,30.24,SW,225,3.4,3.4,74,0.00,,---,0.00,VWS V14.01,2013-02-09 07:49:00,
2013-02-09 02:54:00,12.4,5.7,30.24,SW,225,3.4,3.4,74,0.00,,---,0.00,VWS V14.01,2013-02-09 07:54:00,
2013-02-09 02:59:00,12.0,5.3,30.24,SW,225,3.4,3.4,74,0.00,,---,0.00,VWS V14.01,2013-02-09 07:59:00,
2013-02-09 03:04:00,11.8,5.2,30.21,SW,225,3.4,3.4,74,0.00,,---,0.00,VWS V14.01,2013-02-09 08:04:00,
2013-02-09 03:09:00,11.8,5.2,30.21,SW,225,3.4,3.4,74,0.00,,---,0.00,VWS V14.01,2013-02-09 08:09:00,
2013-02-09 03:14:00,11.5,4.8,30.21,SW,225,3.4,3.4,74,0.00,,---,0.00,VWS V14.01,2013-02-09 08:14:00,
2013-02-09 03:19:00,11.1,4.5,30.24,SW,225,3.4,3.4,74,0.00,,---,0.00,VWS V14.01,2013-02-09 08:19:00,
2013-02-09 03:24:00,10.9,4.3,30.24,SW,225,3.4,3.4,74,0.00,,---,0.00,VWS V14.01,2013-02-09 08:24:00,
2013-02-09 03:29:00,10.8,4.1,30.24,SW,225,3.4,3.4,74,0.00,,---,0.00,VWS V14.01,2013-02-09 08:29:00,
2013-02-09 03:34:00,10.8,4.1,30.24,SW,225,3.4,3.4,74,0.00,,---,0.00,VWS V14.01,2013-02-09 08:34:00,
2013-02-09 03:39:00,10.6,3.9,30.24,SW,225,3.4,3.4,74,0.00,,---,0.00,VWS V14.01,2013-02-09 08:39:00,
2013-02-09 03:44:00,10.6,3.9,30.24,SW,225,3.4,3.4,74,0.00,,---,0.00,VWS V14.01,2013-02-09 08:44:00,
2013-02-09 03:49:00,10.6,3.9,30.21,SW,225,3.4,3.4,74,0.00,,---,0.00,VWS V14.01,2013-02-09 08:49:00,
2013-02-09 03:54:00,10.6,3.9,30.21,SW,225,3.4,3.4,74,0.00,,---,0.00,VWS V14.01,2013-02-09 08:54:00,
2013-02-09 03:59:00,10.2,3.6,30.21,SW,225,3.4,3.4,74,0.00,,---,0.00,VWS V14.01,2013-02-09 08:59:00,
2013-02-09 04:04:00,10.0,3.4,30.21,SW,225,3.4,3.4,74,0.00,,---,0.00,VWS V14.01,2013-02-09 09:04:00,
2013-02-09 04:09:00,9.9,3.2,30.21,SW,225,3.4,3.4,74,0.00,,---,0.00,VWS V14.01,2013-02-09 09:09:00,
2013-02-09 04:14:00,9.7,3.1,30.21,SW,225,3.4,3.4,74,0.00,,---,0.00,VWS V14.01,2013-02-09 09:14:00,
2013-02-09 04:19:00,9.7,3.1,30.21,SW,225,3.4,3.4,74,0.00,,---,0.00,VWS V14.01,2013-02-09 09:19:00,
2013-02-09 04:24:00,9.7,3.1,30.21,SW,225,3.4,3.4,74,0.00,,---,0.00,VWS V14.01,2013-02-09 09:24:00,
2013-02-09 04:29:00,9.9,3.2,30.21,SW,225,3.4,3.4,74,0.00,,---,0.00,VWS V14.01,2013-02-09 09:29:00,
2013-02-09 04:34:00,9.7,3.1,30.21,SW,225,3.4,3.4,74,0.00,,---,0.00,VWS V14.01,2013-02-09 09:34:00,
2013-02-09 04:39:00,9.9,3.2,30.21,SW,225,3.4,3.4,74,0.00,,---,0.00,VWS V14.01,2013-02-09 09:39:00,
2013-02-09 04:44:00,9.5,2.9,30.21,SW,225,3.4,3.4,74,0.00,,---,0.00,VWS V14.01,2013-02-09 09:44:00,
2013-02-09 04:49:00,9.7,3.1,30.24,SW,225,3.4,3.4,74,0.00,,---,0.00,VWS V14.01,2013-02-09 09:49:00,
2013-02-09 04:54:00,9.7,3.1,30.24,SW,225,3.4,3.4,74,0.00,,---,0.00,VWS V14.01,2013-02-09 09:54:00,
2013-02-09 04:59:00,9.5,2.9,30.24,SW,225,3.4,3.4,74,0.00,,---,0.00,VWS V14.01,2013-02-09 09:59:00,
2013-02-09 05:04:00,9.5,2.9,30.24,SW,225,3.4,3.4,74,0.00,,---,0.00,VWS V14.01,2013-02-09 10:04:00,
2013-02-09 05:09:00,9.3,2.7,30.24,SW,225,3.4,3.4,74,0.00,,---,0.00,VWS V14.01,2013-02-09 10:09:00,
2013-02-09 05:14:00,9.3,2.7,30.24,SW,225,3.4,3.4,74,0.00,,---,0.00,VWS V14.01,2013-02-09 10:14:00,
2013-02-09 05:19:00,9.3,2.7,30.27,SW,225,3.4,3.4,74,0.00,,---,0.00,VWS V14.01,2013-02-09 10:19:00,
2013-02-09 05:24:00,9.3,2.7,30.27,SW,225,3.4,3.4,74,0.00,,---,0.00,VWS V14.01,2013-02-09 10:24:00,
2013-02-09 05:29:00,9.5,2.9,30.27,SW,225,3.4,3.4,74,0.00,,---,0.00,VWS V14.01,2013-02-09 10:29:00,
2013-02-09 05:34:00,9.1,2.5,30.27,SW,225,3.4,3.4,74,0.00,,---,0.00,VWS V14.01,2013-02-09 10:34:00,
2013-02-09 05:39:00,9.1,2.5,30.27,SW,225,3.4,3.4,74,0.00,,---,0.00,VWS V14.01,2013-02-09 10:39:00,
2013-02-09 05:44:00,8.8,2.2,30.27,SW,225,3.4,3.4,74,0.00,,---,0.00,VWS V14.01,2013-02-09 10:44:00,
2013-02-09 05:49:00,8.6,2.0,30.27,SW,225,3.4,3.4,74,0.00,,---,0.00,VWS V14.01,2013-02-09 10:49:00,
2013-02-09 05:54:00,8.4,1.9,30.27,SW,225,3.4,3.4,74,0.00,,---,0.00,VWS V14.01,2013-02-09 10:54:00,
2013-02-09 05:59:00,8.2,1.7,30.27,SW,225,3.4,3.4,74,0.00,,---,0.00,VWS V14.01,2013-02-09 10:59:00,
2013-02-09 06:04:00,8.1,1.5,30.24,SW,225,3.4,3.4,74,0.00,,---,0.00,VWS V14.01,2013-02-09 11:04:00,
2013-02-09 06:09:00,7.9,1.3,30.24,SW,225,3.4,3.4,74,0.00,,---,0.00,VWS V14.01,2013-02-09 11:09:00,
2013-02-09 06:14:00,8.1,1.5,30.24,SW,225,3.4,3.4,74,0.00,,---,0.00,VWS V14.01,2013-02-09 11:14:00,
2013-02-09 06:19:00,7.9,1.3,30.24,SW,225,3.4,3.4,74,0.00,,---,0.00,VWS V14.01,2013-02-09 11:19:00,
2013-02-09 06:24:00,7.9,1.3,30.24,SW,225,3.4,3.4,74,0.00,,---,0.00,VWS V14.01,2013-02-09 11:24:00,
2013-02-09 06:29:00,7.9,1.3,30.24,SW,225,3.4,3.4,74,0.00,,---,0.00,VWS V14.01,2013-02-09 11:29:00,
2013-02-09 06:34:00,8.1,1.5,30.27,SW,225,3.4,3.4,74,0.00,,---,0.00,VWS V14.01,2013-02-09 11:34:00,
2013-02-09 06:39:00,8.1,1.5,30.27,SW,225,3.4,3.4,74,0.00,,---,0.00,VWS V14.01,2013-02-09 11:39:00,
2013-02-09 06:44:00,8.1,1.5,30.27,SW,225,3.4,3.4,74,0.00,,---,0.00,VWS V14.01,2013-02-09 11:44:00,
2013-02-09 06:49:00,8.4,1.9,30.27,SW,225,3.4,3.4,74,0.00,,---,0.00,VWS V14.01,2013-02-09 11:49:00,
2013-02-09 06:54:00,8.4,1.9,30.27,SW,225,3.4,3.4,74,0.00,,---,0.00,VWS V14.01,2013-02-09 11:54:00,
2013-02-09 06:59:00,8.6,2.0,30.27,SW,225,3.4,3.4,74,0.00,,---,0.00,VWS V14.01,2013-02-09 11:59:00,
2013-02-09 07:04:00,8.6,2.0,30.27,SW,225,3.4,3.4,74,0.00,,---,0.00,VWS V14.01,2013-02-09 12:04:00,
2013-02-09 07:09:00,8.8,2.2,30.27,SW,225,3.4,3.4,74,0.00,,---,0.00,VWS V14.01,2013-02-09 12:09:00,
2013-02-09 07:14:00,9.1,2.5,30.27,SW,225,3.4,3.4,74,0.00,,---,0.00,VWS V14.01,2013-02-09 12:14:00,
2013-02-09 07:19:00,9.1,2.5,30.30,SW,225,3.4,3.4,74,0.00,,---,0.00,VWS V14.01,2013-02-09 12:19:00,
2013-02-09 07:24:00,9.3,2.7,30.30,SW,225,3.4,3.4,74,0.00,,---,0.00,VWS V14.01,2013-02-09 12:24:00,
2013-02-09 07:29:00,9.1,2.5,30.30,SW,225,3.4,3.4,74,0.00,,---,0.00,VWS V14.01,2013-02-09 12:29:00,
2013-02-09 07:34:00,9.3,2.7,30.30,SW,225,3.4,3.4,74,0.00,,---,0.00,VWS V14.01,2013-02-09 12:34:00,
2013-02-09 07:39:00,9.3,2.7,30.30,SW,225,3.4,3.4,74,0.00,,---,0.00,VWS V14.01,2013-02-09 12:39:00,
2013-02-09 07:44:00,9.3,2.7,30.30,SW,225,3.4,3.4,74,0.00,,---,0.00,VWS V14.01,2013-02-09 12:44:00,
2013-02-09 07:49:00,9.5,2.9,30.30,SW,225,3.4,3.4,74,0.00,,---,0.00,VWS V14.01,2013-02-09 12:49:00,
2013-02-09 07:54:00,9.7,3.1,30.30,SW,225,3.4,3.4,74,0.00,,---,0.00,VWS V14.01,2013-02-09 12:54:00,
2013-02-09 07:59:00,9.5,2.9,30.30,SW,225,3.4,3.4,74,0.00,,---,0.00,VWS V14.01,2013-02-09 12:59:00,
2013-02-09 08:04:00,9.5,2.9,30.30,SW,225,3.4,3.4,74,0.00,,---,0.00,VWS V14.01,2013-02-09 13:04:00,
2013-02-09 08:09:00,9.3,2.7,30.30,SW,225,3.4,3.4,74,0.00,,---,0.00,VWS V14.01,2013-02-09 13:09:00,
2013-02-09 08:13:00,9.3,2.7,30.30,SW,225,3.4,3.4,74,0.00,,---,0.00,VWS V14.01,2013-02-09 13:13:00,
2013-02-09 08:18:00,9.1,2.5,30.33,SW,225,3.4,3.4,74,0.00,,---,0.00,VWS V14.01,2013-02-09 13:18:00,
2013-02-09 08:23:00,9.3,2.7,30.33,SW,225,3.4,3.4,74,0.00,,---,0.00,VWS V14.01,2013-02-09 13:23:00,
2013-02-09 08:28:00,9.3,2.7,30.33,SW,225,3.4,3.4,74,0.00,,---,0.00,VWS V14.01,2013-02-09 13:28:00,
2013-02-09 08:33:00,9.5,2.9,30.30,SW,225,3.4,3.4,74,0.00,,---,0.00,VWS V14.01,2013-02-09 13:33:00,
2013-02-09 08:38:00,9.7,3.1,30.30,SW,225,3.4,3.4,74,0.00,,---,0.00,VWS V14.01,2013-02-09 13:38:00,
2013-02-09 08:43:00,9.7,3.1,30.30,SW,225,3.4,3.4,74,0.00,,---,0.00,VWS V14.01,2013-02-09 13:43:00,
2013-02-09 08:48:00,9.9,3.2,30.30,SW,225,3.4,3.4,74,0.00,,---,0.00,VWS V14.01,2013-02-09 13:48:00,
2013-02-09 08:53:00,10.2,3.6,30.30,SW,225,3.4,3.4,74,0.00,,---,0.00,VWS V14.01,2013-02-09 13:53:00,
2013-02-09 08:58:00,11.1,4.5,30.30,SW,225,3.4,3.4,74,0.00,,---,0.00,VWS V14.01,2013-02-09 13:58:00,
2013-02-09 09:03:00,11.7,5.0,30.27,SW,225,3.4,3.4,74,0.00,,---,0.00,VWS V14.01,2013-02-09 14:03:00,
2013-02-09 09:08:00,12.2,5.5,30.27,SW,225,3.4,3.4,74,0.00,,---,0.00,VWS V14.01,2013-02-09 14:08:00,
2013-02-09 09:13:00,12.6,5.9,30.27,SW,225,3.4,3.4,74,0.00,,---,0.00,VWS V14.01,2013-02-09 14:13:00,
2013-02-09 09:18:00,13.3,6.6,30.30,SW,225,3.4,3.4,74,0.00,,---,0.00,VWS V14.01,2013-02-09 14:18:00,
2013-02-09 09:23:00,14.0,9.3,30.30,SW,225,3.4,3.4,81,0.00,,---,0.00,VWS V14.01,2013-02-09 14:23:00,
2013-02-09 09:28:00,14.7,10.2,30.30,SW,225,3.4,3.4,82,0.00,,---,0.00,VWS V14.01,2013-02-09 14:28:00,
2013-02-09 09:33:00,15.8,11.6,30.30,SW,225,3.4,3.4,83,0.00,,---,0.00,VWS V14.01,2013-02-09 14:33:00,
2013-02-09 09:38:00,16.9,12.6,30.30,SW,225,3.4,3.4,83,0.00,,---,0.00,VWS V14.01,2013-02-09 14:38:00,
2013-02-09 09:43:00,17.6,13.6,30.30,SW,225,3.4,3.4,84,0.00,,---,0.00,VWS V14.01,2013-02-09 14:43:00,
2013-02-09 09:48:00,18.5,14.5,30.30,SW,225,3.4,3.4,84,0.00,,---,0.00,VWS V14.01,2013-02-09 14:48:00,
2013-02-09 09:53:00,20.3,16.5,30.30,SW,225,3.4,3.4,85,0.00,,---,0.00,VWS V14.01,2013-02-09 14:53:00,
2013-02-09 09:58:00,20.8,17.3,30.30,SW,225,3.4,3.4,86,0.00,,---,0.00,VWS V14.01,2013-02-09 14:58:00,
2013-02-09 10:03:00,22.1,18.6,30.30,SW,225,3.4,3.4,86,0.00,,---,0.00,VWS V14.01,2013-02-09 15:03:00,
2013-02-09 10:08:00,23.5,20.0,30.30,SW,225,3.4,3.4,86,0.00,,---,0.00,VWS V14.01,2013-02-09 15:08:00,
2013-02-09 10:13:00,24.4,20.9,30.30,SW,225,3.4,3.4,86,0.00,,---,0.00,VWS V14.01,2013-02-09 15:13:00,
2013-02-09 10:18:00,24.8,19.8,30.30,SW,225,3.4,3.4,81,0.00,,---,0.00,VWS V14.01,2013-02-09 15:18:00,
2013-02-09 10:23:00,25.3,20.0,30.30,SW,225,3.4,3.4,80,0.00,,---,0.00,VWS V14.01,2013-02-09 15:23:00,
2013-02-09 10:28:00,25.5,19.6,30.30,North,0,2.0,2.0,78,0.00,,---,0.00,VWS V14.01,2013-02-09 15:28:00,
2013-02-09 10:33:00,25.9,19.1,30.30,North,0,2.0,2.0,75,0.00,,---,0.00,VWS V14.01,2013-02-09 15:33:00,
2013-02-09 10:38:00,26.1,18.6,30.30,North,0,2.0,2.0,73,0.00,,---,0.00,VWS V14.01,2013-02-09 15:38:00,
2013-02-09 10:43:00,26.1,17.3,30.30,North,0,2.0,2.0,69,0.00,,---,0.00,VWS V14.01,2013-02-09 15:43:00,
2013-02-09 10:48:00,26.1,16.3,30.27,NNE,22,0.0,0.0,66,0.00,,---,0.00,VWS V14.01,2013-02-09 15:48:00,
2013-02-09 10:53:00,26.4,15.9,30.27,NNE,22,3.6,3.6,64,0.00,,---,0.00,VWS V14.01,2013-02-09 15:53:00,
2013-02-09 10:58:00,26.6,15.4,30.27,NNE,22,3.6,3.6,62,0.00,,---,0.00,VWS V14.01,2013-02-09 15:58:00,
2013-02-09 11:03:00,27.3,16.0,30.33,NNE,22,1.6,1.6,62,0.00,,---,0.00,VWS V14.01,2013-02-09 16:03:00,
2013-02-09 11:08:00,27.7,16.0,30.33,NNW,338,1.3,2.9,61,0.00,,---,0.00,VWS V14.01,2013-02-09 16:08:00,
2013-02-09 11:13:00,28.8,17.0,30.33,ENE,68,4.0,4.0,61,0.00,,---,0.00,VWS V14.01,2013-02-09 16:13:00,
2013-02-09 11:18:00,29.7,17.5,30.30,ENE,68,4.0,4.0,60,0.00,,---,0.00,VWS V14.01,2013-02-09 16:18:00,
2013-02-09 11:23:00,30.4,16.6,30.30,ENE,68,4.0,4.0,56,0.00,,---,0.00,VWS V14.01,2013-02-09 16:23:00,
2013-02-09 11:28:00,31.3,17.8,30.30,SSE,158,2.7,2.7,57,0.00,,---,0.00,VWS V14.01,2013-02-09 16:28:00,
2013-02-09 11:33:00,32.9,18.5,30.30,WSW,248,2.2,2.7,55,0.00,,---,0.00,VWS V14.01,2013-02-09 16:33:00,
2013-02-09 11:38:00,33.8,18.0,30.30,WNW,292,0.0,0.0,52,0.00,,---,0.00,VWS V14.01,2013-02-09 16:38:00,
2013-02-09 11:43:00,35.1,19.2,30.30,WNW,292,0.0,0.0,52,0.00,,---,0.00,VWS V14.01,2013-02-09 16:43:00,
2013-02-09 11:48:00,35.8,19.0,30.30,WNW,292,0.0,0.0,50,0.00,,---,0.00,VWS V14.01,2013-02-09 16:48:00,
2013-02-09 11:53:00,36.7,19.8,30.30,SSW,202,3.4,3.4,50,0.00,,---,0.00,VWS V14.01,2013-02-09 16:53:00,
2013-02-09 11:58:00,38.5,21.0,30.30,SSW,202,3.4,3.4,49,0.00,,---,0.00,VWS V14.01,2013-02-09 16:58:00,
2013-02-09 12:03:00,39.4,21.8,30.30,SSW,202,1.3,1.3,49,0.00,,---,0.00,VWS V14.01,2013-02-09 17:03:00,
2013-02-09 12:08:00,39.9,20.8,30.30,SSW,202,1.3,1.3,46,0.00,,---,0.00,VWS V14.01,2013-02-09 17:08:00,
2013-02-09 12:13:00,40.6,20.5,30.30,SSW,202,1.3,1.3,44,0.00,,---,0.00,VWS V14.01,2013-02-09 17:13:00,
2013-02-09 12:18:00,41.2,20.4,30.30,SSW,202,1.3,1.3,43,0.00,,---,0.00,VWS V14.01,2013-02-09 17:18:00,
2013-02-09 12:23:00,40.6,18.8,30.30,SSW,202,1.3,1.3,41,0.00,,---,0.00,VWS V14.01,2013-02-09 17:23:00,
2013-02-09 12:28:00,41.7,19.2,30.30,SSW,202,1.3,1.3,40,0.00,,---,0.00,VWS V14.01,2013-02-09 17:28:00,
2013-02-09 12:33:00,40.6,17.6,30.30,SSW,202,1.3,1.3,39,0.00,,---,0.00,VWS V14.01,2013-02-09 17:33:00,
2013-02-09 12:38:00,39.2,16.3,30.30,SSW,202,1.3,1.3,39,0.00,,---,0.00,VWS V14.01,2013-02-09 17:38:00,
2013-02-09 12:43:00,36.3,14.3,30.30,SSW,202,3.4,3.4,40,0.00,,---,0.00,VWS V14.01,2013-02-09 17:43:00,
2013-02-09 12:48:00,35.2,13.9,30.30,SSW,202,3.4,3.4,41,0.00,,---,0.00,VWS V14.01,2013-02-09 17:48:00,
2013-02-09 12:53:00,33.8,12.1,30.30,SSW,202,3.4,3.4,40,0.00,,---,0.00,VWS V14.01,2013-02-09 17:53:00,
2013-02-09 12:58:00,33.1,12.0,30.30,SSW,202,3.4,3.4,41,0.00,,---,0.00,VWS V14.01,2013-02-09 17:58:00,
2013-02-09 13:03:00,32.5,11.5,30.27,SSW,202,3.4,3.4,41,0.00,,---,0.00,VWS V14.01,2013-02-09 18:03:00,
2013-02-09 13:08:00,31.8,10.8,30.27,SSW,202,3.4,3.4,41,0.00,,---,0.00,VWS V14.01,2013-02-09 18:08:00,
2013-02-09 13:13:00,31.3,10.3,30.27,SSW,202,3.4,3.4,41,0.00,,---,0.00,VWS V14.01,2013-02-09 18:13:00,
2013-02-09 13:18:00,31.3,10.3,30.27,SSW,202,3.4,3.4,41,0.00,,---,0.00,VWS V14.01,2013-02-09 18:18:00,
2013-02-09 13:23:00,30.7,10.4,30.27,SSW,202,3.4,3.4,42,0.00,,---,0.00,VWS V14.01,2013-02-09 18:23:00,
2013-02-09 13:28:00,30.4,10.1,30.27,SSW,202,3.4,3.4,42,0.00,,---,0.00,VWS V14.01,2013-02-09 18:28:00,
2013-02-09 13:33:00,30.2,10.4,30.24,SSW,202,3.4,3.4,43,0.00,,---,0.00,VWS V14.01,2013-02-09 18:33:00,
2013-02-09 13:38:00,30.2,10.4,30.24,SSW,202,3.4,3.4,43,0.00,,---,0.00,VWS V14.01,2013-02-09 18:38:00,
2013-02-09 13:43:00,30.0,10.2,30.24,SSW,202,3.4,3.4,43,0.00,,---,0.00,VWS V14.01,2013-02-09 18:43:00,
2013-02-09 13:48:00,29.7,9.9,30.24,SSW,202,3.4,3.4,43,0.00,,---,0.00,VWS V14.01,2013-02-09 18:48:00,
2013-02-09 13:53:00,29.5,9.8,30.24,SSW,202,3.4,3.4,43,0.00,,---,0.00,VWS V14.01,2013-02-09 18:53:00,
2013-02-09 13:58:00,29.5,9.8,30.24,SSW,202,3.4,3.4,43,0.00,,---,0.00,VWS V14.01,2013-02-09 18:58:00,
2013-02-09 14:03:00,29.7,9.9,30.24,WSW,248,3.6,3.6,43,0.00,,---,0.00,VWS V14.01,2013-02-09 19:03:00,
2013-02-09 14:08:00,29.7,9.9,30.24,SW,225,3.4,3.4,43,0.00,,---,0.00,VWS V14.01,2013-02-09 19:08:00,
2013-02-09 14:13:00,29.7,9.9,30.24,SW,225,3.4,3.4,43,0.00,,---,0.00,VWS V14.01,2013-02-09 19:13:00,
2013-02-09 14:18:00,29.5,9.8,30.24,SW,225,3.4,3.4,43,0.00,,---,0.00,VWS V14.01,2013-02-09 19:18:00,
2013-02-09 14:23:00,29.3,9.6,30.24,SW,225,3.4,3.4,43,0.00,,---,0.00,VWS V14.01,2013-02-09 19:23:00,
2013-02-09 14:28:00,29.5,9.8,30.24,SW,225,3.4,3.4,43,0.00,,---,0.00,VWS V14.01,2013-02-09 19:28:00,
2013-02-09 14:33:00,29.7,10.4,30.24,SW,225,3.4,3.4,44,0.00,,---,0.00,VWS V14.01,2013-02-09 19:33:00,
2013-02-09 14:38:00,29.5,10.3,30.24,SW,225,3.4,3.4,44,0.00,,---,0.00,VWS V14.01,2013-02-09 19:38:00,
2013-02-09 14:43:00,29.5,10.3,30.24,SW,225,3.4,3.4,44,0.00,,---,0.00,VWS V14.01,2013-02-09 19:43:00,
2013-02-09 14:48:00,29.3,10.1,30.24,SW,225,3.4,3.4,44,0.00,,---,0.00,VWS V14.01,2013-02-09 19:48:00,
2013-02-09 14:53:00,29.5,9.8,30.24,SW,225,3.4,3.4,43,0.00,,---,0.00,VWS V14.01,2013-02-09 19:53:00,
2013-02-09 14:58:00,29.5,10.3,30.24,SW,225,3.4,3.4,44,0.00,,---,0.00,VWS V14.01,2013-02-09 19:58:00,
2013-02-09 15:03:00,29.5,9.8,30.24,SW,225,3.4,3.4,43,0.00,,---,0.00,VWS V14.01,2013-02-09 20:03:00,
2013-02-09 15:08:00,29.3,10.1,30.24,SW,225,3.4,3.4,44,0.00,,---,0.00,VWS V14.01,2013-02-09 20:08:00,
2013-02-09 15:13:00,29.1,9.4,30.24,South,180,4.3,4.3,43,0.00,,---,0.00,VWS V14.01,2013-02-09 20:13:00,
2013-02-09 15:18:00,28.9,9.3,30.21,South,180,4.3,4.3,43,0.00,,---,0.00,VWS V14.01,2013-02-09 20:18:00,
2013-02-09 15:23:00,29.1,9.9,30.21,South,180,4.3,4.3,44,0.00,,---,0.00,VWS V14.01,2013-02-09 20:23:00,
2013-02-09 15:27:00,28.9,9.3,30.21,South,180,4.3,4.3,43,0.00,,---,0.00,VWS V14.01,2013-02-09 20:27:00,
2013-02-09 15:32:00,28.8,9.1,30.21,South,180,4.3,4.3,43,0.00,,---,0.00,VWS V14.01,2013-02-09 20:32:00,
2013-02-09 15:37:00,28.6,9.4,30.21,South,180,4.3,4.3,44,0.00,,---,0.00,VWS V14.01,2013-02-09 20:37:00,
2013-02-09 15:42:00,28.8,9.1,30.21,South,180,4.3,4.3,43,0.00,,---,0.00,VWS V14.01,2013-02-09 20:42:00,
2013-02-09 15:47:00,28.6,8.9,30.21,South,180,4.3,4.3,43,0.00,,---,0.00,VWS V14.01,2013-02-09 20:47:00,
2013-02-09 15:52:00,28.6,8.9,30.21,South,180,4.3,4.3,43,0.00,,---,0.00,VWS V14.01,2013-02-09 20:52:00,
2013-02-09 15:57:00,28.6,8.9,30.21,South,180,4.3,4.3,43,0.00,,---,0.00,VWS V14.01,2013-02-09 20:57:00,
2013-02-09 16:02:00,28.6,9.4,30.21,South,180,4.3,4.3,44,0.00,,---,0.00,VWS V14.01,2013-02-09 21:02:00,
2013-02-09 16:07:00,28.4,9.3,30.21,South,180,4.3,4.3,44,0.00,,---,0.00,VWS V14.01,2013-02-09 21:07:00,
2013-02-09 16:12:00,28.4,9.3,30.21,South,180,4.3,4.3,44,0.00,,---,0.00,VWS V14.01,2013-02-09 21:12:00,
2013-02-09 16:17:00,28.0,8.9,30.21,South,180,4.3,4.3,44,0.00,,---,0.00,VWS V14.01,2013-02-09 21:17:00,
2013-02-09 16:22:00,27.9,9.3,30.21,South,180,4.3,4.3,45,0.00,,---,0.00,VWS V14.01,2013-02-09 21:22:00,
2013-02-09 16:27:00,27.9,9.3,30.21,South,180,4.3,4.3,45,0.00,,---,0.00,VWS V14.01,2013-02-09 21:27:00,
2013-02-09 16:32:00,27.7,9.1,30.21,South,180,4.3,4.3,45,0.00,,---,0.00,VWS V14.01,2013-02-09 21:32:00,
2013-02-09 16:37:00,27.7,8.6,30.21,South,180,4.3,4.3,44,0.00,,---,0.00,VWS V14.01,2013-02-09 21:37:00,
2013-02-09 16:42:00,27.5,9.0,30.21,South,180,4.3,4.3,45,0.00,,---,0.00,VWS V14.01,2013-02-09 21:42:00,
2013-02-09 16:47:00,27.3,8.8,30.21,South,180,4.3,4.3,45,0.00,,---,0.00,VWS V14.01,2013-02-09 21:47:00,
2013-02-09 16:52:00,27.3,8.8,30.21,South,180,4.3,4.3,45,0.00,,---,0.00,VWS V14.01,2013-02-09 21:52:00,
2013-02-09 16:57:00,27.1,8.6,30.21,South,180,4.3,4.3,45,0.00,,---,0.00,VWS V14.01,2013-02-09 21:57:00,
2013-02-09 17:02:00,27.0,8.5,30.18,South,180,4.3,4.3,45,0.00,,---,0.00,VWS V14.01,2013-02-09 22:02:00,
2013-02-09 17:07:00,26.8,8.3,30.18,South,180,4.3,4.3,45,0.00,,---,0.00,VWS V14.01,2013-02-09 22:07:00,
2013-02-09 17:12:00,26.6,8.6,30.18,South,180,4.3,4.3,46,0.00,,---,0.00,VWS V14.01,2013-02-09 22:12:00,
2013-02-09 17:17:00,26.4,8.5,30.21,South,180,4.3,4.3,46,0.00,,---,0.00,VWS V14.01,2013-02-09 22:17:00,
2013-02-09 17:22:00,26.4,8.5,30.21,South,180,4.3,4.3,46,0.00,,---,0.00,VWS V14.01,2013-02-09 22:22:00,
2013-02-09 17:27:00,26.2,8.8,30.21,South,180,4.3,4.3,47,0.00,,---,0.00,VWS V14.01,2013-02-09 22:27:00,
2013-02-09 17:32:00,26.1,8.6,30.21,South,180,4.3,4.3,47,0.00,,---,0.00,VWS V14.01,2013-02-09 22:32:00,
2013-02-09 17:37:00,25.9,8.9,30.21,South,180,4.3,4.3,48,0.00,,---,0.00,VWS V14.01,2013-02-09 22:37:00,
2013-02-09 17:42:00,25.7,8.7,30.21,South,180,4.3,4.3,48,0.00,,---,0.00,VWS V14.01,2013-02-09 22:42:00,
2013-02-09 17:47:00,25.5,8.6,30.21,South,180,4.3,4.3,48,0.00,,---,0.00,VWS V14.01,2013-02-09 22:47:00,
2013-02-09 17:52:00,25.3,8.9,30.21,South,180,4.3,4.3,49,0.00,,---,0.00,VWS V14.01,2013-02-09 22:52:00,
2013-02-09 17:57:00,25.2,9.1,30.21,South,180,4.3,4.3,50,0.00,,---,0.00,VWS V14.01,2013-02-09 22:57:00,
2013-02-09 18:02:00,25.0,9.0,30.21,South,180,4.3,4.3,50,0.00,,---,0.00,VWS V14.01,2013-02-09 23:02:00,
2013-02-09 18:07:00,24.8,9.2,30.21,South,180,4.3,4.3,51,0.00,,---,0.00,VWS V14.01,2013-02-09 23:07:00,
2013-02-09 18:12:00,24.4,8.9,30.21,South,180,4.3,4.3,51,0.00,,---,0.00,VWS V14.01,2013-02-09 23:12:00,
2013-02-09 18:17:00,24.4,8.9,30.21,South,180,4.3,4.3,51,0.00,,---,0.00,VWS V14.01,2013-02-09 23:17:00,
2013-02-09 18:22:00,24.1,9.0,30.21,South,180,4.3,4.3,52,0.00,,---,0.00,VWS V14.01,2013-02-09 23:22:00,
2013-02-09 18:27:00,23.9,8.9,30.21,South,180,4.3,4.3,52,0.00,,---,0.00,VWS V14.01,2013-02-09 23:27:00,
2013-02-09 18:32:00,23.7,8.7,30.21,South,180,4.3,4.3,52,0.00,,---,0.00,VWS V14.01,2013-02-09 23:32:00,
2013-02-09 18:37:00,23.5,8.5,30.21,South,180,4.3,4.3,52,0.00,,---,0.00,VWS V14.01,2013-02-09 23:37:00,
2013-02-09 18:42:00,23.5,8.5,30.21,South,180,4.3,4.3,52,0.00,,---,0.00,VWS V14.01,2013-02-09 23:42:00,
2013-02-09 18:47:00,23.4,8.4,30.21,South,180,4.3,4.3,52,0.00,,---,0.00,VWS V14.01,2013-02-09 23:47:00,
2013-02-09 18:52:00,23.2,8.6,30.21,South,180,4.3,4.3,53,0.00,,---,0.00,VWS V14.01,2013-02-09 23:52:00,
2013-02-09 18:57:00,23.0,8.9,30.21,South,180,4.3,4.3,54,0.00,,---,0.00,VWS V14.01,2013-02-09 23:57:00,
2013-02-09 19:02:00,22.8,8.7,30.21,South,180,4.3,4.3,54,0.00,,---,0.00,VWS V14.01,2013-02-10 00:02:00,
2013-02-09 19:07:00,22.8,8.7,30.21,South,180,4.3,4.3,54,0.00,,---,0.00,VWS V14.01,2013-02-10 00:07:00,
2013-02-09 19:12:00,22.6,8.5,30.21,South,180,4.3,4.3,54,0.00,,---,0.00,VWS V14.01,2013-02-10 00:12:00,
2013-02-09 19:17:00,22.3,8.2,30.21,South,180,4.3,4.3,54,0.00,,---,0.00,VWS V14.01,2013-02-10 00:17:00,
2013-02-09 19:22:00,22.1,8.4,30.21,South,180,4.3,4.3,55,0.00,,---,0.00,VWS V14.01,2013-02-10 00:22:00,
2013-02-09 19:27:00,22.1,8.4,30.21,South,180,4.3,4.3,55,0.00,,---,0.00,VWS V14.01,2013-02-10 00:27:00,
2013-02-09 19:32:00,21.9,8.2,30.18,South,180,4.3,4.3,55,0.00,,---,0.00,VWS V14.01,2013-02-10 00:32:00,
2013-02-09 19:37:00,21.9,8.2,30.18,South,180,4.3,4.3,55,0.00,,---,0.00,VWS V14.01,2013-02-10 00:37:00,
2013-02-09 19:42:00,21.9,8.6,30.18,South,180,4.3,4.3,56,0.00,,---,0.00,VWS V14.01,2013-02-10 00:42:00,
2013-02-09 19:47:00,21.9,8.6,30.15,South,180,4.3,4.3,56,0.00,,---,0.00,VWS V14.01,2013-02-10 00:47:00,
2013-02-09 19:52:00,21.9,9.0,30.15,South,180,4.3,4.3,57,0.00,,---,0.00,VWS V14.01,2013-02-10 00:52:00,
2013-02-09 19:57:00,21.7,8.9,30.15,South,180,4.3,4.3,57,0.00,,---,0.00,VWS V14.01,2013-02-10 00:57:00,
2013-02-09 20:02:00,21.6,8.7,30.18,South,180,4.3,4.3,57,0.00,,---,0.00,VWS V14.01,2013-02-10 01:02:00,
2013-02-09 20:07:00,21.6,8.7,30.18,South,180,4.3,4.3,57,0.00,,---,0.00,VWS V14.01,2013-02-10 01:07:00,
2013-02-09 20:12:00,21.4,8.9,30.18,South,180,4.3,4.3,58,0.00,,---,0.00,VWS V14.01,2013-02-10 01:12:00,
2013-02-09 20:17:00,21.2,9.1,30.15,South,180,4.3,4.3,59,0.00,,---,0.00,VWS V14.01,2013-02-10 01:17:00,
2013-02-09 20:22:00,21.2,9.1,30.15,South,180,4.3,4.3,59,0.00,,---,0.00,VWS V14.01,2013-02-10 01:22:00,
2013-02-09 20:27:00,21.0,9.3,30.15,South,180,4.3,4.3,60,0.00,,---,0.00,VWS V14.01,2013-02-10 01:27:00,
2013-02-09 20:32:00,21.0,9.3,30.18,South,180,4.3,4.3,60,0.00,,---,0.00,VWS V14.01,2013-02-10 01:32:00,
2013-02-09 20:37:00,20.8,9.5,30.18,South,180,4.3,4.3,61,0.00,,---,0.00,VWS V14.01,2013-02-10 01:37:00,
2013-02-09 20:42:00,20.8,9.9,30.18,South,180,4.3,4.3,62,0.00,,---,0.00,VWS V14.01,2013-02-10 01:42:00,
2013-02-09 20:47:00,20.8,10.2,30.18,South,180,4.3,4.3,63,0.00,,---,0.00,VWS V14.01,2013-02-10 01:47:00,
2013-02-09 20:52:00,20.7,10.4,30.18,South,180,4.3,4.3,64,0.00,,---,0.00,VWS V14.01,2013-02-10 01:52:00,
2013-02-09 20:57:00,20.7,10.8,30.18,South,180,4.3,4.3,65,0.00,,---,0.00,VWS V14.01,2013-02-10 01:57:00,
2013-02-09 21:02:00,20.5,10.2,30.18,South,180,4.3,4.3,64,0.00,,---,0.00,VWS V14.01,2013-02-10 02:02:00,
2013-02-09 21:07:00,20.5,10.6,30.18,South,180,4.3,4.3,65,0.00,,---,0.00,VWS V14.01,2013-02-10 02:07:00,
2013-02-09 21:12:00,20.3,10.4,30.18,South,180,4.3,4.3,65,0.00,,---,0.00,VWS V14.01,2013-02-10 02:12:00,
2013-02-09 21:17:00,20.3,10.8,30.18,South,180,4.3,4.3,66,0.00,,---,0.00,VWS V14.01,2013-02-10 02:17:00,
2013-02-09 21:22:00,20.3,11.1,30.18,South,180,4.3,4.3,67,0.00,,---,0.00,VWS V14.01,2013-02-10 02:22:00,
2013-02-09 21:27:00,20.3,11.4,30.18,South,180,4.3,4.3,68,0.00,,---,0.00,VWS V14.01,2013-02-10 02:27:00,
2013-02-09 21:32:00,20.3,11.8,30.18,South,180,4.3,4.3,69,0.00,,---,0.00,VWS V14.01,2013-02-10 02:32:00,
2013-02-09 21:37:00,20.3,12.1,30.18,South,180,4.3,4.3,70,0.00,,---,0.00,VWS V14.01,2013-02-10 02:37:00,
2013-02-09 21:42:00,20.1,12.2,30.18,South,180,4.3,4.3,71,0.00,,---,0.00,VWS V14.01,2013-02-10 02:42:00,
2013-02-09 21:47:00,20.1,12.2,30.18,South,180,4.3,4.3,71,0.00,,---,0.00,VWS V14.01,2013-02-10 02:47:00,
2013-02-09 21:52:00,19.9,12.1,30.18,South,180,4.3,4.3,71,0.00,,---,0.00,VWS V14.01,2013-02-10 02:52:00,
2013-02-09 21:57:00,19.9,12.1,30.18,South,180,4.3,4.3,71,0.00,,---,0.00,VWS V14.01,2013-02-10 02:57:00,
2013-02-09 22:02:00,19.9,12.4,30.18,South,180,4.3,4.3,72,0.00,,---,0.00,VWS V14.01,2013-02-10 03:02:00,
2013-02-09 22:07:00,19.8,12.2,30.18,South,180,4.3,4.3,72,0.00,,---,0.00,VWS V14.01,2013-02-10 03:07:00,
2013-02-09 22:12:00,19.8,12.5,30.18,South,180,4.3,4.3,73,0.00,,---,0.00,VWS V14.01,2013-02-10 03:12:00,
2013-02-09 22:17:00,19.6,12.4,30.18,South,180,4.3,4.3,73,0.00,,---,0.00,VWS V14.01,2013-02-10 03:17:00,
2013-02-09 22:22:00,19.4,12.2,30.18,South,180,4.3,4.3,73,0.00,,---,0.00,VWS V14.01,2013-02-10 03:22:00,
2013-02-09 22:27:00,19.4,12.5,30.18,South,180,4.3,4.3,74,0.00,,---,0.00,VWS V14.01,2013-02-10 03:27:00,
2013-02-09 22:32:00,19.4,12.5,30.18,South,180,4.3,4.3,74,0.00,,---,0.00,VWS V14.01,2013-02-10 03:32:00,
2013-02-09 22:37:00,19.2,12.6,30.18,South,180,4.3,4.3,75,0.00,,---,0.00,VWS V14.01,2013-02-10 03:37:00,
2013-02-09 22:42:00,19.2,12.9,30.18,South,180,4.3,4.3,76,0.00,,---,0.00,VWS V14.01,2013-02-10 03:42:00,
2013-02-09 22:47:00,19.2,12.9,30.15,South,180,4.3,4.3,76,0.00,,---,0.00,VWS V14.01,2013-02-10 03:47:00,
2013-02-09 22:52:00,19.2,12.9,30.15,South,180,4.3,4.3,76,0.00,,---,0.00,VWS V14.01,2013-02-10 03:52:00,
2013-02-09 22:57:00,19.0,12.7,30.15,South,180,4.3,4.3,76,0.00,,---,0.00,VWS V14.01,2013-02-10 03:57:00,
2013-02-09 23:02:00,19.0,13.0,30.15,South,180,4.3,4.3,77,0.00,,---,0.00,VWS V14.01,2013-02-10 04:02:00,
2013-02-09 23:07:00,19.0,13.3,30.15,South,180,4.3,4.3,78,0.00,,---,0.00,VWS V14.01,2013-02-10 04:07:00,
2013-02-09 23:12:00,19.0,13.3,30.15,South,180,4.3,4.3,78,0.00,,---,0.00,VWS V14.01,2013-02-10 04:12:00,
2013-02-09 23:17:00,19.0,13.3,30.15,South,180,4.3,4.3,78,0.00,,---,0.00,VWS V14.01,2013-02-10 04:17:00,
2013-02-09 23:22:00,19.0,13.3,30.15,South,180,4.3,4.3,78,0.00,,---,0.00,VWS V14.01,2013-02-10 04:22:00,
2013-02-09 23:27:00,19.0,13.6,30.15,South,180,4.3,4.3,79,0.00,,---,0.00,VWS V14.01,2013-02-10 04:27:00,
2013-02-09 23:32:00,19.0,13.6,30.15,South,180,4.3,4.3,79,0.00,,---,0.00,VWS V14.01,2013-02-10 04:32:00,
2013-02-09 23:37:00,18.9,13.4,30.15,South,180,4.3,4.3,79,0.00,,---,0.00,VWS V14.01,2013-02-10 04:37:00,
2013-02-09 23:42:00,18.7,13.3,30.15,South,180,4.3,4.3,79,0.00,,---,0.00,VWS V14.01,2013-02-10 04:42:00,
2013-02-09 23:47:00,18.7,13.3,30.12,South,180,4.3,4.3,79,0.00,,---,0.00,VWS V14.01,2013-02-10 04:47:00,
2013-02-09 23:52:00,18.7,13.3,30.12,South,180,4.3,4.3,79,0.00,,---,0.00,VWS V14.01,2013-02-10 04:52:00,
2013-02-09 23:57:00,18.7,13.3,30.12,South,180,4.3,4.3,79,0.00,,---,0.00,VWS V14.01,2013-02-10 04:57:00,